Evansport, Ohio
Current Conditions -  °F | °C
As of 11:53 PM on Sunday 21 Dec 2014 (Local Time) from KDFI Reporting Station
Haze Haze  
Wind Chill: 22°   Ceiling: Unl
Heat Index: 27°   Visibility: 6mi
Dew Point: 22°   Wind: 5mph
Humidity: 81%   Direction: 100°E
Pressure: 30.16"   Gusts: NA
Location:  41.42°N, 84.39°W
Report Text: KDFI 220453Z AUTO 10004KT 6SM HZ CLR M03/M06 A3016 RMK AO2 SLP224 T10281056 400171061 TSNO
Loading
Personal Weather Stations






























Interactive Weather Map New forecast layout! Learn more

10-Day Weather Forecast

Advertisements
Track Severe Weather on mobile